sensor_id;sensor_type;location;lat;lon;timestamp;pressure;altitude;pressure_sealevel;temperature;humidity
30875;BME280;17581;43.222;27.924;2023-02-17T00:01:59;101570.94;;;7.18;56.62
30875;BME280;17581;43.222;27.924;2023-02-17T00:04:27;101560.72;;;7.09;56.05
30875;BME280;17581;43.222;27.924;2023-02-17T00:06:53;101571.88;;;7.17;56.58
30875;BME280;17581;43.222;27.924;2023-02-17T00:09:18;101563.16;;;7.13;55.90
30875;BME280;17581;43.222;27.924;2023-02-17T00:11:44;101556.22;;;7.09;56.01
30875;BME280;17581;43.222;27.924;2023-02-17T00:14:11;101550.34;;;7.03;56.00
30875;BME280;17581;43.222;27.924;2023-02-17T00:16:37;101553.63;;;7.08;56.45
30875;BME280;17581;43.222;27.924;2023-02-17T00:19:03;101550.03;;;7.09;56.15
30875;BME280;17581;43.222;27.924;2023-02-17T00:22:05;101551.75;;;7.10;56.51
30875;BME280;17581;43.222;27.924;2023-02-17T00:24:32;101545.66;;;7.06;56.52
30875;BME280;17581;43.222;27.924;2023-02-17T00:26:58;101552.59;;;7.10;56.57
30875;BME280;17581;43.222;27.924;2023-02-17T00:29:24;101537.59;;;7.08;56.50
30875;BME280;17581;43.222;27.924;2023-02-17T00:31:51;101530.00;;;7.16;56.22
30875;BME280;17581;43.222;27.924;2023-02-17T00:34:17;101539.31;;;7.09;56.62
30875;BME280;17581;43.222;27.924;2023-02-17T00:36:43;101535.84;;;7.07;56.98
30875;BME280;17581;43.222;27.924;2023-02-17T00:39:10;101525.84;;;7.10;57.36
30875;BME280;17581;43.222;27.924;2023-02-17T00:41:36;101516.19;;;7.08;56.76
30875;BME280;17581;43.222;27.924;2023-02-17T00:44:02;101520.88;;;7.20;56.82
30875;BME280;17581;43.222;27.924;2023-02-17T00:46:28;101516.94;;;7.27;56.80
30875;BME280;17581;43.222;27.924;2023-02-17T00:48:53;101516.78;;;7.30;56.87
30875;BME280;17581;43.222;27.924;2023-02-17T00:51:19;101500.91;;;7.27;56.71
30875;BME280;17581;43.222;27.924;2023-02-17T00:53:45;101508.25;;;7.39;56.88
30875;BME280;17581;43.222;27.924;2023-02-17T00:56:11;101504.34;;;7.29;57.07
30875;BME280;17581;43.222;27.924;2023-02-17T00:58:37;101502.59;;;7.28;56.93
30875;BME280;17581;43.222;27.924;2023-02-17T01:01:03;101488.56;;;7.40;57.20
30875;BME280;17581;43.222;27.924;2023-02-17T01:03:29;101497.78;;;7.35;57.16
30875;BME280;17581;43.222;27.924;2023-02-17T01:05:55;101499.91;;;7.45;57.09
30875;BME280;17581;43.222;27.924;2023-02-17T01:08:21;101489.03;;;7.48;57.30
30875;BME280;17581;43.222;27.924;2023-02-17T01:10:50;101481.75;;;7.50;56.81
30875;BME280;17581;43.222;27.924;2023-02-17T01:13:17;101484.63;;;7.63;56.85
30875;BME280;17581;43.222;27.924;2023-02-17T01:15:46;101474.84;;;7.62;56.70
30875;BME280;17581;43.222;27.924;2023-02-17T01:18:13;101482.47;;;7.70;56.89
30875;BME280;17581;43.222;27.924;2023-02-17T01:20:40;101470.19;;;7.65;56.07
30875;BME280;17581;43.222;27.924;2023-02-17T01:23:06;101475.91;;;7.75;56.41
30875;BME280;17581;43.222;27.924;2023-02-17T01:25:36;101466.06;;;7.76;56.20
30875;BME280;17581;43.222;27.924;2023-02-17T01:28:02;101471.25;;;7.79;56.42
30875;BME280;17581;43.222;27.924;2023-02-17T01:30:27;101468.56;;;7.79;56.14
30875;BME280;17581;43.222;27.924;2023-02-17T01:32:53;101466.84;;;7.78;56.24
30875;BME280;17581;43.222;27.924;2023-02-17T01:35:18;101465.72;;;7.82;56.37
30875;BME280;17581;43.222;27.924;2023-02-17T01:37:44;101472.00;;;7.81;56.51
30875;BME280;17581;43.222;27.924;2023-02-17T01:40:11;101463.81;;;7.84;56.62
30875;BME280;17581;43.222;27.924;2023-02-17T01:42:37;101456.41;;;7.89;56.45
30875;BME280;17581;43.222;27.924;2023-02-17T01:47:50;101452.56;;;7.93;56.31
30875;BME280;17581;43.222;27.924;2023-02-17T01:50:20;101471.50;;;7.90;56.33
30875;BME280;17581;43.222;27.924;2023-02-17T01:52:47;101453.97;;;8.00;56.20
30875;BME280;17581;43.222;27.924;2023-02-17T01:55:16;101461.81;;;8.03;55.82
30875;BME280;17581;43.222;27.924;2023-02-17T01:57:45;101457.22;;;8.05;55.55
30875;BME280;17581;43.222;27.924;2023-02-17T02:00:13;101450.91;;;8.06;55.73
30875;BME280;17581;43.222;27.924;2023-02-17T02:02:43;101452.47;;;8.10;55.52
30875;BME280;17581;43.222;27.924;2023-02-17T02:05:10;101443.66;;;8.08;55.88
30875;BME280;17581;43.222;27.924;2023-02-17T02:07:39;101446.94;;;8.13;55.34
30875;BME280;17581;43.222;27.924;2023-02-17T02:10:06;101444.28;;;8.13;55.23
30875;BME280;17581;43.222;27.924;2023-02-17T02:12:38;101433.13;;;8.05;55.44
30875;BME280;17581;43.222;27.924;2023-02-17T02:15:09;101439.25;;;8.07;55.44
30875;BME280;17581;43.222;27.924;2023-02-17T02:20:43;101437.72;;;8.03;56.03
30875;BME280;17581;43.222;27.924;2023-02-17T02:34:37;101437.38;;;7.93;56.21
30875;BME280;17581;43.222;27.924;2023-02-17T02:37:17;101427.69;;;7.91;56.06
30875;BME280;17581;43.222;27.924;2023-02-17T02:39:47;101424.84;;;7.94;56.25
30875;BME280;17581;43.222;27.924;2023-02-17T02:42:16;101434.78;;;7.92;56.08
30875;BME280;17581;43.222;27.924;2023-02-17T02:44:43;101429.91;;;7.98;55.86
30875;BME280;17581;43.222;27.924;2023-02-17T02:49:56;101423.56;;;8.01;55.73
30875;BME280;17581;43.222;27.924;2023-02-17T02:53:07;101430.63;;;8.02;55.57
30875;BME280;17581;43.222;27.924;2023-02-17T02:58:33;101431.69;;;7.84;56.34
30875;BME280;17581;43.222;27.924;2023-02-17T03:07:00;101424.44;;;7.86;55.75
30875;BME280;17581;43.222;27.924;2023-02-17T03:09:28;101439.81;;;7.98;55.47
30875;BME280;17581;43.222;27.924;2023-02-17T03:11:56;101427.69;;;7.91;56.09
30875;BME280;17581;43.222;27.924;2023-02-17T03:14:22;101434.09;;;7.88;55.57
30875;BME280;17581;43.222;27.924;2023-02-17T03:16:49;101436.25;;;7.82;55.53
30875;BME280;17581;43.222;27.924;2023-02-17T03:19:17;101434.47;;;7.82;56.28
30875;BME280;17581;43.222;27.924;2023-02-17T03:21:50;101425.09;;;7.74;56.05
30875;BME280;17581;43.222;27.924;2023-02-17T03:24:17;101439.28;;;7.76;55.94
30875;BME280;17581;43.222;27.924;2023-02-17T03:26:42;101444.47;;;7.79;55.98
30875;BME280;17581;43.222;27.924;2023-02-17T03:29:08;101438.19;;;7.80;55.34
30875;BME280;17581;43.222;27.924;2023-02-17T03:31:33;101441.97;;;7.76;55.36
30875;BME280;17581;43.222;27.924;2023-02-17T03:33:59;101442.84;;;7.76;55.67
30875;BME280;17581;43.222;27.924;2023-02-17T03:36:25;101440.56;;;7.68;55.17
30875;BME280;17581;43.222;27.924;2023-02-17T03:38:51;101434.28;;;7.54;55.19
30875;BME280;17581;43.222;27.924;2023-02-17T03:41:16;101443.94;;;7.56;55.83
30875;BME280;17581;43.222;27.924;2023-02-17T03:43:42;101438.88;;;7.52;55.77
30875;BME280;17581;43.222;27.924;2023-02-17T03:46:11;101436.53;;;7.46;55.46
30875;BME280;17581;43.222;27.924;2023-02-17T03:48:37;101449.97;;;7.44;55.82
30875;BME280;17581;43.222;27.924;2023-02-17T03:51:18;101440.56;;;7.37;55.53
30875;BME280;17581;43.222;27.924;2023-02-17T03:53:44;101424.91;;;7.14;56.02
30875;BME280;17581;43.222;27.924;2023-02-17T03:56:11;101424.31;;;7.09;56.38
30875;BME280;17581;43.222;27.924;2023-02-17T03:58:37;101427.31;;;7.03;56.33
30875;BME280;17581;43.222;27.924;2023-02-17T04:01:04;101426.50;;;7.01;56.43
30875;BME280;17581;43.222;27.924;2023-02-17T04:03:30;101415.03;;;6.99;56.42
30875;BME280;17581;43.222;27.924;2023-02-17T04:05:56;101430.72;;;6.89;56.86
30875;BME280;17581;43.222;27.924;2023-02-17T04:08:22;101428.13;;;6.88;56.49
30875;BME280;17581;43.222;27.924;2023-02-17T04:10:55;101420.44;;;6.82;56.88
30875;BME280;17581;43.222;27.924;2023-02-17T04:13:21;101405.81;;;6.72;56.60
30875;BME280;17581;43.222;27.924;2023-02-17T04:15:47;101414.94;;;6.68;57.14
30875;BME280;17581;43.222;27.924;2023-02-17T04:18:13;101424.59;;;6.70;57.31
30875;BME280;17581;43.222;27.924;2023-02-17T04:20:39;101410.91;;;6.76;57.28
30875;BME280;17581;43.222;27.924;2023-02-17T04:23:05;101413.69;;;6.75;57.09
30875;BME280;17581;43.222;27.924;2023-02-17T04:25:33;101414.47;;;6.77;56.83
30875;BME280;17581;43.222;27.924;2023-02-17T04:27:59;101409.91;;;6.79;56.95
30875;BME280;17581;43.222;27.924;2023-02-17T04:30:24;101406.75;;;6.71;57.02
30875;BME280;17581;43.222;27.924;2023-02-17T04:32:50;101412.03;;;6.72;56.93
30875;BME280;17581;43.222;27.924;2023-02-17T04:35:15;101413.84;;;6.54;57.34
30875;BME280;17581;43.222;27.924;2023-02-17T04:37:41;101416.38;;;6.57;57.21
30875;BME280;17581;43.222;27.924;2023-02-17T04:40:07;101421.72;;;6.57;57.53
30875;BME280;17581;43.222;27.924;2023-02-17T04:42:35;101411.97;;;6.56;57.31
30875;BME280;17581;43.222;27.924;2023-02-17T04:45:01;101432.06;;;6.64;57.22
30875;BME280;17581;43.222;27.924;2023-02-17T04:47:26;101430.97;;;6.68;57.51
30875;BME280;17581;43.222;27.924;2023-02-17T04:49:52;101436.34;;;6.68;57.29
30875;BME280;17581;43.222;27.924;2023-02-17T04:52:18;101439.16;;;6.65;57.73
30875;BME280;17581;43.222;27.924;2023-02-17T04:54:44;101425.09;;;6.61;57.87
30875;BME280;17581;43.222;27.924;2023-02-17T04:57:09;101435.78;;;6.61;57.13
30875;BME280;17581;43.222;27.924;2023-02-17T04:59:35;101419.91;;;6.58;57.52
30875;BME280;17581;43.222;27.924;2023-02-17T05:02:00;101430.44;;;6.61;57.53
30875;BME280;17581;43.222;27.924;2023-02-17T05:04:26;101419.19;;;6.54;57.38
30875;BME280;17581;43.222;27.924;2023-02-17T05:06:51;101439.16;;;6.65;57.11
30875;BME280;17581;43.222;27.924;2023-02-17T05:09:16;101431.63;;;6.55;57.26
30875;BME280;17581;43.222;27.924;2023-02-17T05:11:42;101445.59;;;6.61;57.54
30875;BME280;17581;43.222;27.924;2023-02-17T05:14:07;101450.28;;;6.57;57.48
30875;BME280;17581;43.222;27.924;2023-02-17T05:16:33;101452.28;;;6.52;58.00
30875;BME280;17581;43.222;27.924;2023-02-17T05:18:58;101432.34;;;6.42;57.92
30875;BME280;17581;43.222;27.924;2023-02-17T05:21:23;101450.78;;;6.64;58.05
30875;BME280;17581;43.222;27.924;2023-02-17T05:23:49;101460.53;;;6.65;57.94
30875;BME280;17581;43.222;27.924;2023-02-17T05:26:14;101452.22;;;6.71;57.73
30875;BME280;17581;43.222;27.924;2023-02-17T05:28:40;101455.69;;;6.73;57.54
30875;BME280;17581;43.222;27.924;2023-02-17T05:31:05;101449.38;;;6.74;57.84
30875;BME280;17581;43.222;27.924;2023-02-17T05:33:31;101458.97;;;6.78;57.46
30875;BME280;17581;43.222;27.924;2023-02-17T05:36:03;101469.19;;;6.87;57.52
30875;BME280;17581;43.222;27.924;2023-02-17T05:38:29;101458.50;;;6.87;57.78
30875;BME280;17581;43.222;27.924;2023-02-17T05:40:54;101469.06;;;7.05;57.65
30875;BME280;17581;43.222;27.924;2023-02-17T05:43:20;101456.81;;;7.01;57.62
30875;BME280;17581;43.222;27.924;2023-02-17T05:45:45;101456.63;;;7.04;57.10
30875;BME280;17581;43.222;27.924;2023-02-17T05:48:11;101467.53;;;7.17;56.84
30875;BME280;17581;43.222;27.924;2023-02-17T05:50:36;101461.31;;;7.17;57.07
30875;BME280;17581;43.222;27.924;2023-02-17T05:53:02;101463.94;;;7.18;56.61
30875;BME280;17581;43.222;27.924;2023-02-17T05:55:28;101470.44;;;7.30;56.66
30875;BME280;17581;43.222;27.924;2023-02-17T05:57:53;101465.13;;;7.28;56.62
30875;BME280;17581;43.222;27.924;2023-02-17T06:00:19;101456.78;;;7.34;56.22
30875;BME280;17581;43.222;27.924;2023-02-17T06:02:44;101463.63;;;7.40;56.76
30875;BME280;17581;43.222;27.924;2023-02-17T06:05:10;101466.31;;;7.55;55.84
30875;BME280;17581;43.222;27.924;2023-02-17T06:07:35;101465.72;;;7.66;55.96
30875;BME280;17581;43.222;27.924;2023-02-17T06:10:00;101452.34;;;7.66;55.50
30875;BME280;17581;43.222;27.924;2023-02-17T06:12:26;101472.66;;;7.86;55.79
30875;BME280;17581;43.222;27.924;2023-02-17T06:14:51;101467.47;;;7.83;55.33
30875;BME280;17581;43.222;27.924;2023-02-17T06:17:17;101460.09;;;7.86;55.82
30875;BME280;17581;43.222;27.924;2023-02-17T06:19:42;101465.44;;;7.86;55.20
30875;BME280;17581;43.222;27.924;2023-02-17T06:22:07;101470.63;;;7.89;55.78
30875;BME280;17581;43.222;27.924;2023-02-17T06:24:33;101466.41;;;8.01;55.33
30875;BME280;17581;43.222;27.924;2023-02-17T06:26:59;101481.69;;;7.99;54.99
30875;BME280;17581;43.222;27.924;2023-02-17T06:29:25;101461.94;;;7.86;54.63
30875;BME280;17581;43.222;27.924;2023-02-17T06:31:52;101468.47;;;7.96;54.66
30875;BME280;17581;43.222;27.924;2023-02-17T06:34:17;101463.63;;;7.87;54.82
30875;BME280;17581;43.222;27.924;2023-02-17T06:36:43;101465.91;;;7.79;55.04
30875;BME280;17581;43.222;27.924;2023-02-17T06:39:09;101474.53;;;7.84;54.82
30875;BME280;17581;43.222;27.924;2023-02-17T06:41:34;101460.03;;;7.88;55.25
30875;BME280;17581;43.222;27.924;2023-02-17T06:44:00;101465.97;;;7.93;54.92
30875;BME280;17581;43.222;27.924;2023-02-17T06:46:25;101471.25;;;7.94;54.96
30875;BME280;17581;43.222;27.924;2023-02-17T06:48:51;101475.38;;;8.00;54.57
30875;BME280;17581;43.222;27.924;2023-02-17T06:51:16;101465.88;;;8.10;54.71
30875;BME280;17581;43.222;27.924;2023-02-17T06:53:41;101472.34;;;8.21;54.60
30875;BME280;17581;43.222;27.924;2023-02-17T06:56:07;101485.56;;;8.40;54.41
30875;BME280;17581;43.222;27.924;2023-02-17T06:58:32;101481.19;;;8.53;53.52
30875;BME280;17581;43.222;27.924;2023-02-17T07:00:59;101487.06;;;8.60;53.48
30875;BME280;17581;43.222;27.924;2023-02-17T07:03:25;101492.38;;;8.75;53.52
30875;BME280;17581;43.222;27.924;2023-02-17T07:05:55;101482.41;;;8.77;52.58
30875;BME280;17581;43.222;27.924;2023-02-17T07:08:21;101469.28;;;8.73;52.25
30875;BME280;17581;43.222;27.924;2023-02-17T07:10:46;101482.34;;;8.93;52.08
30875;BME280;17581;43.222;27.924;2023-02-17T07:13:12;101478.72;;;9.08;51.88
30875;BME280;17581;43.222;27.924;2023-02-17T07:15:37;101468.66;;;9.12;51.28
30875;BME280;17581;43.222;27.924;2023-02-17T07:18:02;101474.50;;;9.18;51.23
30875;BME280;17581;43.222;27.924;2023-02-17T07:20:28;101477.75;;;9.23;51.05
30875;BME280;17581;43.222;27.924;2023-02-17T07:22:56;101459.16;;;9.20;50.78
30875;BME280;17581;43.222;27.924;2023-02-17T07:25:21;101473.19;;;9.25;50.16
30875;BME280;17581;43.222;27.924;2023-02-17T07:27:47;101473.25;;;9.24;50.56
30875;BME280;17581;43.222;27.924;2023-02-17T07:30:12;101463.78;;;9.18;50.60
30875;BME280;17581;43.222;27.924;2023-02-17T07:32:38;101471.53;;;9.37;50.62
30875;BME280;17581;43.222;27.924;2023-02-17T07:35:04;101474.59;;;9.45;50.28
30875;BME280;17581;43.222;27.924;2023-02-17T07:37:29;101477.94;;;9.49;50.54
30875;BME280;17581;43.222;27.924;2023-02-17T07:39:55;101478.44;;;9.55;50.52
30875;BME280;17581;43.222;27.924;2023-02-17T07:42:21;101479.09;;;9.59;50.93
30875;BME280;17581;43.222;27.924;2023-02-17T07:44:47;101472.06;;;9.70;50.48
30875;BME280;17581;43.222;27.924;2023-02-17T07:47:13;101484.16;;;9.77;50.41
30875;BME280;17581;43.222;27.924;2023-02-17T07:49:38;101481.44;;;9.92;50.58
30875;BME280;17581;43.222;27.924;2023-02-17T07:52:04;101475.06;;;10.07;50.15
30875;BME280;17581;43.222;27.924;2023-02-17T07:54:30;101467.56;;;10.12;50.03
30875;BME280;17581;43.222;27.924;2023-02-17T07:56:55;101484.78;;;10.36;49.64
30875;BME280;17581;43.222;27.924;2023-02-17T07:59:20;101475.69;;;10.51;49.31
30875;BME280;17581;43.222;27.924;2023-02-17T08:01:48;101475.38;;;10.68;49.36
30875;BME280;17581;43.222;27.924;2023-02-17T08:04:14;101485.44;;;10.79;49.00
30875;BME280;17581;43.222;27.924;2023-02-17T08:06:40;101475.66;;;10.90;47.70
30875;BME280;17581;43.222;27.924;2023-02-17T08:09:05;101480.06;;;11.04;47.94
30875;BME280;17581;43.222;27.924;2023-02-17T08:11:49;101475.53;;;11.05;47.90
30875;BME280;17581;43.222;27.924;2023-02-17T08:14:33;101483.53;;;11.19;47.43
30875;BME280;17581;43.222;27.924;2023-02-17T08:16:58;101475.97;;;11.24;47.21
30875;BME280;17581;43.222;27.924;2023-02-17T08:19:24;101474.16;;;11.37;47.29
30875;BME280;17581;43.222;27.924;2023-02-17T08:21:51;101481.03;;;11.41;46.84
30875;BME280;17581;43.222;27.924;2023-02-17T08:24:17;101487.59;;;11.50;46.92
30875;BME280;17581;43.222;27.924;2023-02-17T08:26:44;101475.97;;;11.49;46.77
30875;BME280;17581;43.222;27.924;2023-02-17T08:29:09;101467.97;;;11.60;46.73
30875;BME280;17581;43.222;27.924;2023-02-17T08:31:35;101471.41;;;11.75;46.37
30875;BME280;17581;43.222;27.924;2023-02-17T08:34:06;101476.66;;;11.89;46.00
30875;BME280;17581;43.222;27.924;2023-02-17T08:36:31;101475.78;;;11.88;46.04
30875;BME280;17581;43.222;27.924;2023-02-17T08:38:57;101471.56;;;11.97;45.92
30875;BME280;17581;43.222;27.924;2023-02-17T08:41:29;101462.16;;;12.02;45.60
30875;BME280;17581;43.222;27.924;2023-02-17T08:43:56;101479.16;;;12.16;46.05
30875;BME280;17581;43.222;27.924;2023-02-17T08:46:22;101484.63;;;12.14;45.47
30875;BME280;17581;43.222;27.924;2023-02-17T08:48:48;101480.56;;;12.09;46.22
30875;BME280;17581;43.222;27.924;2023-02-17T08:51:18;101459.16;;;11.94;46.64
30875;BME280;17581;43.222;27.924;2023-02-17T08:53:48;101469.00;;;11.95;46.27
30875;BME280;17581;43.222;27.924;2023-02-17T08:56:14;101477.50;;;12.26;45.65
30875;BME280;17581;43.222;27.924;2023-02-17T08:58:39;101474.44;;;12.30;45.49
30875;BME280;17581;43.222;27.924;2023-02-17T09:01:04;101478.03;;;12.42;44.95
30875;BME280;17581;43.222;27.924;2023-02-17T09:03:35;101478.13;;;12.53;44.62
30875;BME280;17581;43.222;27.924;2023-02-17T09:06:05;101477.88;;;12.56;43.93
30875;BME280;17581;43.222;27.924;2023-02-17T09:08:32;101462.47;;;12.45;44.00
30875;BME280;17581;43.222;27.924;2023-02-17T09:10:58;101448.66;;;12.50;43.97
30875;BME280;17581;43.222;27.924;2023-02-17T09:13:24;101464.66;;;12.75;44.22
30875;BME280;17581;43.222;27.924;2023-02-17T09:15:51;101469.84;;;12.78;43.66
30875;BME280;17581;43.222;27.924;2023-02-17T09:18:19;101479.34;;;13.06;43.51
30875;BME280;17581;43.222;27.924;2023-02-17T09:20:45;101468.78;;;13.03;43.32
30875;BME280;17581;43.222;27.924;2023-02-17T09:23:11;101461.09;;;13.09;42.89
30875;BME280;17581;43.222;27.924;2023-02-17T09:25:36;101454.72;;;13.11;42.77
30875;BME280;17581;43.222;27.924;2023-02-17T09:28:02;101447.13;;;13.16;42.93
30875;BME280;17581;43.222;27.924;2023-02-17T09:30:27;101456.47;;;13.23;42.63
30875;BME280;17581;43.222;27.924;2023-02-17T09:32:53;101469.00;;;13.35;42.49
30875;BME280;17581;43.222;27.924;2023-02-17T09:35:18;101467.50;;;13.31;42.78
30875;BME280;17581;43.222;27.924;2023-02-17T09:37:44;101458.31;;;13.44;42.63
30875;BME280;17581;43.222;27.924;2023-02-17T09:43:14;101462.13;;;13.53;42.25
30875;BME280;17581;43.222;27.924;2023-02-17T09:45:41;101449.59;;;13.63;42.64
30875;BME280;17581;43.222;27.924;2023-02-17T09:48:11;101452.16;;;13.64;42.50
30875;BME280;17581;43.222;27.924;2023-02-17T09:50:43;101447.25;;;13.70;42.31
30875;BME280;17581;43.222;27.924;2023-02-17T09:53:40;101452.28;;;13.63;42.24
30875;BME280;17581;43.222;27.924;2023-02-17T09:56:12;101451.66;;;13.59;42.43
30875;BME280;17581;43.222;27.924;2023-02-17T09:58:49;101447.38;;;13.57;42.77
30875;BME280;17581;43.222;27.924;2023-02-17T10:01:19;101436.81;;;13.54;42.94
30875;BME280;17581;43.222;27.924;2023-02-17T10:06:42;101442.19;;;13.76;42.93
30875;BME280;17581;43.222;27.924;2023-02-17T10:09:21;101421.66;;;13.74;42.94
30875;BME280;17581;43.222;27.924;2023-02-17T10:11:58;101434.41;;;13.83;42.56
30875;BME280;17581;43.222;27.924;2023-02-17T10:17:09;101439.16;;;14.12;42.21
30875;BME280;17581;43.222;27.924;2023-02-17T10:19:43;101432.50;;;14.16;42.33
30875;BME280;17581;43.222;27.924;2023-02-17T10:22:15;101420.00;;;14.04;42.85
30875;BME280;17581;43.222;27.924;2023-02-17T10:24:41;101415.53;;;14.14;42.60
30875;BME280;17581;43.222;27.924;2023-02-17T10:32:25;101404.22;;;14.52;42.09
30875;BME280;17581;43.222;27.924;2023-02-17T10:35:17;101407.72;;;14.64;41.58
30875;BME280;17581;43.222;27.924;2023-02-17T10:37:49;101400.84;;;14.60;41.49
30875;BME280;17581;43.222;27.924;2023-02-17T10:40:21;101402.16;;;14.65;41.39
30875;BME280;17581;43.222;27.924;2023-02-17T10:42:50;101399.06;;;14.70;41.19
30875;BME280;17581;43.222;27.924;2023-02-17T10:45:30;101398.53;;;14.76;41.41
30875;BME280;17581;43.222;27.924;2023-02-17T10:48:02;101388.22;;;14.70;41.58
30875;BME280;17581;43.222;27.924;2023-02-17T10:50:30;101399.69;;;14.83;41.85
30875;BME280;17581;43.222;27.924;2023-02-17T10:52:56;101408.09;;;14.80;41.30
30875;BME280;17581;43.222;27.924;2023-02-17T10:55:31;101394.81;;;14.77;41.24
30875;BME280;17581;43.222;27.924;2023-02-17T10:58:04;101364.56;;;14.72;40.88
30875;BME280;17581;43.222;27.924;2023-02-17T11:00:31;101378.78;;;14.85;40.82
30875;BME280;17581;43.222;27.924;2023-02-17T11:02:57;101373.16;;;14.98;40.50
30875;BME280;17581;43.222;27.924;2023-02-17T11:05:31;101376.34;;;15.12;40.53
30875;BME280;17581;43.222;27.924;2023-02-17T11:08:04;101368.09;;;15.23;39.74
30875;BME280;17581;43.222;27.924;2023-02-17T11:10:39;101348.06;;;15.05;39.62
30875;BME280;17581;43.222;27.924;2023-02-17T11:13:35;101371.00;;;15.32;39.73
30875;BME280;17581;43.222;27.924;2023-02-17T11:16:02;101374.44;;;15.34;39.31
30875;BME280;17581;43.222;27.924;2023-02-17T11:18:31;101359.59;;;15.28;39.42
30875;BME280;17581;43.222;27.924;2023-02-17T11:21:06;101371.75;;;15.43;39.31
30875;BME280;17581;43.222;27.924;2023-02-17T11:23:33;101359.53;;;15.49;39.29
30875;BME280;17581;43.222;27.924;2023-02-17T11:26:06;101360.53;;;15.57;38.82
30875;BME280;17581;43.222;27.924;2023-02-17T11:28:32;101363.75;;;15.42;39.06
30875;BME280;17581;43.222;27.924;2023-02-17T11:30:59;101361.31;;;15.39;38.83
30875;BME280;17581;43.222;27.924;2023-02-17T11:33:38;101351.91;;;15.43;39.17
30875;BME280;17581;43.222;27.924;2023-02-17T11:36:05;101362.25;;;15.49;38.86
30875;BME280;17581;43.222;27.924;2023-02-17T11:38:41;101356.69;;;15.60;38.86
30875;BME280;17581;43.222;27.924;2023-02-17T11:41:07;101356.16;;;15.75;38.50
30875;BME280;17581;43.222;27.924;2023-02-17T11:43:34;101354.75;;;15.71;38.21
30875;BME280;17581;43.222;27.924;2023-02-17T11:51:49;101353.78;;;16.01;37.24
30875;BME280;17581;43.222;27.924;2023-02-17T11:59:59;101332.34;;;16.17;36.69
30875;BME280;17581;43.222;27.924;2023-02-17T12:08:16;101328.03;;;16.63;36.26
30875;BME280;17581;43.222;27.924;2023-02-17T12:14:18;101318.69;;;16.75;36.36
30875;BME280;17581;43.222;27.924;2023-02-17T12:17:21;101321.72;;;16.72;36.02
30875;BME280;17581;43.222;27.924;2023-02-17T12:25:26;101311.44;;;16.66;35.16
30875;BME280;17581;43.222;27.924;2023-02-17T12:28:11;101319.13;;;16.70;35.11
30875;BME280;17581;43.222;27.924;2023-02-17T12:31:00;101311.72;;;16.72;34.89
30875;BME280;17581;43.222;27.924;2023-02-17T12:36:37;101317.09;;;16.82;34.92
30875;BME280;17581;43.222;27.924;2023-02-17T12:39:30;101309.75;;;16.92;34.63
30875;BME280;17581;43.222;27.924;2023-02-17T12:41:58;101309.84;;;17.00;34.81
30875;BME280;17581;43.222;27.924;2023-02-17T12:44:31;101306.81;;;17.13;34.74
30875;BME280;17581;43.222;27.924;2023-02-17T12:47:04;101320.66;;;17.19;34.37
30875;BME280;17581;43.222;27.924;2023-02-17T12:49:48;101318.38;;;17.24;34.57
30875;BME280;17581;43.222;27.924;2023-02-17T12:52:31;101310.66;;;17.20;34.57
30875;BME280;17581;43.222;27.924;2023-02-17T12:55:11;101317.53;;;17.14;34.48
30875;BME280;17581;43.222;27.924;2023-02-17T12:57:47;101322.22;;;17.22;33.68
30875;BME280;17581;43.222;27.924;2023-02-17T13:00:23;101311.25;;;17.14;33.52
30875;BME280;17581;43.222;27.924;2023-02-17T13:02:49;101319.56;;;17.12;32.94
30875;BME280;17581;43.222;27.924;2023-02-17T13:05:25;101319.44;;;17.04;33.44
30875;BME280;17581;43.222;27.924;2023-02-17T13:08:00;101309.56;;;17.03;33.80
30875;BME280;17581;43.222;27.924;2023-02-17T13:10:35;101314.31;;;17.01;34.21
30875;BME280;17581;43.222;27.924;2023-02-17T13:16:09;101296.28;;;17.00;34.39
30875;BME280;17581;43.222;27.924;2023-02-17T13:18:41;101303.84;;;17.06;34.37
30875;BME280;17581;43.222;27.924;2023-02-17T13:24:12;101318.09;;;16.91;34.21
30875;BME280;17581;43.222;27.924;2023-02-17T13:26:40;101303.94;;;16.87;34.45
30875;BME280;17581;43.222;27.924;2023-02-17T13:31:59;101310.97;;;17.07;34.29
30875;BME280;17581;43.222;27.924;2023-02-17T13:34:37;101302.69;;;17.09;33.86
30875;BME280;17581;43.222;27.924;2023-02-17T13:37:24;101296.69;;;17.05;33.99
30875;BME280;17581;43.222;27.924;2023-02-17T13:39:52;101299.25;;;17.07;33.79
30875;BME280;17581;43.222;27.924;2023-02-17T13:44:58;101294.75;;;16.88;33.91
30875;BME280;17581;43.222;27.924;2023-02-17T13:47:34;101307.03;;;16.92;34.30
30875;BME280;17581;43.222;27.924;2023-02-17T13:50:00;101291.34;;;16.86;34.59
30875;BME280;17581;43.222;27.924;2023-02-17T13:52:28;101293.31;;;16.94;34.83
30875;BME280;17581;43.222;27.924;2023-02-17T13:54:59;101304.91;;;16.96;34.96
30875;BME280;17581;43.222;27.924;2023-02-17T13:57:31;101287.63;;;16.87;35.13
30875;BME280;17581;43.222;27.924;2023-02-17T14:00:19;101292.75;;;16.90;34.85
30875;BME280;17581;43.222;27.924;2023-02-17T14:02:53;101294.56;;;16.72;35.13
30875;BME280;17581;43.222;27.924;2023-02-17T14:05:26;101297.69;;;16.67;35.42
30875;BME280;17581;43.222;27.924;2023-02-17T14:07:57;101294.00;;;16.59;35.41
30875;BME280;17581;43.222;27.924;2023-02-17T14:10:25;101289.72;;;16.56;35.89
30875;BME280;17581;43.222;27.924;2023-02-17T14:12:52;101294.69;;;16.51;35.87
30875;BME280;17581;43.222;27.924;2023-02-17T14:15:21;101290.00;;;16.44;36.04
30875;BME280;17581;43.222;27.924;2023-02-17T14:17:47;101287.72;;;16.39;36.18